sensor_id;sensor_type;location;lat;lon;timestamp;P1;durP1;ratioP1;P2;durP2;ratioP2
54823;SDS011;40724;53.196;5.980;2023-02-28T00:00:52;10.38;;;7.38;;
54823;SDS011;40724;53.196;5.980;2023-02-28T00:03:19;13.27;;;6.10;;
54823;SDS011;40724;53.196;5.980;2023-02-28T00:05:45;8.25;;;5.90;;
54823;SDS011;40724;53.196;5.980;2023-02-28T00:08:11;11.20;;;5.15;;
54823;SDS011;40724;53.196;5.980;2023-02-28T00:10:38;12.82;;;5.30;;
54823;SDS011;40724;53.196;5.980;2023-02-28T00:13:05;14.30;;;5.82;;
54823;SDS011;40724;53.196;5.980;2023-02-28T00:15:32;8.52;;;5.05;;
54823;SDS011;40724;53.196;5.980;2023-02-28T00:17:58;9.75;;;5.63;;
54823;SDS011;40724;53.196;5.980;2023-02-28T00:20:24;15.05;;;5.72;;
54823;SDS011;40724;53.196;5.980;2023-02-28T00:22:51;11.80;;;6.35;;
54823;SDS011;40724;53.196;5.980;2023-02-28T00:25:18;7.93;;;5.03;;
54823;SDS011;40724;53.196;5.980;2023-02-28T00:27:45;11.88;;;5.35;;
54823;SDS011;40724;53.196;5.980;2023-02-28T00:30:12;10.35;;;6.18;;
54823;SDS011;40724;53.196;5.980;2023-02-28T00:32:38;13.68;;;5.22;;
54823;SDS011;40724;53.196;5.980;2023-02-28T00:35:05;8.80;;;6.28;;
54823;SDS011;40724;53.196;5.980;2023-02-28T00:37:31;12.73;;;5.57;;
54823;SDS011;40724;53.196;5.980;2023-02-28T00:39:58;11.43;;;5.80;;
54823;SDS011;40724;53.196;5.980;2023-02-28T00:42:24;7.60;;;5.30;;
54823;SDS011;40724;53.196;5.980;2023-02-28T00:44:50;14.73;;;5.10;;
54823;SDS011;40724;53.196;5.980;2023-02-28T00:47:16;10.25;;;6.10;;
54823;SDS011;40724;53.196;5.980;2023-02-28T00:49:42;10.07;;;4.47;;
54823;SDS011;40724;53.196;5.980;2023-02-28T00:52:09;5.65;;;3.92;;
54823;SDS011;40724;53.196;5.980;2023-02-28T00:54:35;7.97;;;4.15;;
54823;SDS011;40724;53.196;5.980;2023-02-28T00:57:01;7.22;;;4.05;;
54823;SDS011;40724;53.196;5.980;2023-02-28T00:59:27;6.28;;;3.75;;
54823;SDS011;40724;53.196;5.980;2023-02-28T01:01:54;11.25;;;3.80;;
54823;SDS011;40724;53.196;5.980;2023-02-28T01:04:20;7.35;;;3.72;;
54823;SDS011;40724;53.196;5.980;2023-02-28T01:06:46;9.75;;;3.53;;
54823;SDS011;40724;53.196;5.980;2023-02-28T01:09:12;6.40;;;3.47;;
54823;SDS011;40724;53.196;5.980;2023-02-28T01:11:38;6.65;;;3.42;;
54823;SDS011;40724;53.196;5.980;2023-02-28T01:14:06;4.35;;;2.90;;
54823;SDS011;40724;53.196;5.980;2023-02-28T01:16:32;8.00;;;3.25;;
54823;SDS011;40724;53.196;5.980;2023-02-28T01:18:59;9.88;;;3.42;;
54823;SDS011;40724;53.196;5.980;2023-02-28T01:21:25;6.35;;;3.78;;
54823;SDS011;40724;53.196;5.980;2023-02-28T01:23:51;5.55;;;3.00;;
54823;SDS011;40724;53.196;5.980;2023-02-28T01:26:19;8.68;;;3.22;;
54823;SDS011;40724;53.196;5.980;2023-02-28T01:28:45;4.72;;;3.22;;
54823;SDS011;40724;53.196;5.980;2023-02-28T01:31:12;8.93;;;3.58;;
54823;SDS011;40724;53.196;5.980;2023-02-28T01:33:38;9.68;;;2.90;;
54823;SDS011;40724;53.196;5.980;2023-02-28T01:36:09;7.25;;;2.90;;
54823;SDS011;40724;53.196;5.980;2023-02-28T01:38:36;6.95;;;2.60;;
54823;SDS011;40724;53.196;5.980;2023-02-28T01:41:02;5.32;;;2.88;;
54823;SDS011;40724;53.196;5.980;2023-02-28T01:43:52;8.57;;;2.47;;
54823;SDS011;40724;53.196;5.980;2023-02-28T01:46:15;9.10;;;3.13;;
54823;SDS011;40724;53.196;5.980;2023-02-28T01:48:45;7.35;;;3.17;;
54823;SDS011;40724;53.196;5.980;2023-02-28T01:51:13;6.63;;;2.78;;
54823;SDS011;40724;53.196;5.980;2023-02-28T01:53:43;6.95;;;2.90;;
54823;SDS011;40724;53.196;5.980;2023-02-28T01:56:10;7.00;;;2.75;;
54823;SDS011;40724;53.196;5.980;2023-02-28T01:58:37;8.85;;;2.78;;
54823;SDS011;40724;53.196;5.980;2023-02-28T02:01:03;6.75;;;2.83;;
54823;SDS011;40724;53.196;5.980;2023-02-28T02:03:30;10.60;;;2.88;;
54823;SDS011;40724;53.196;5.980;2023-02-28T02:05:57;5.90;;;2.95;;
54823;SDS011;40724;53.196;5.980;2023-02-28T02:08:23;5.75;;;2.50;;
54823;SDS011;40724;53.196;5.980;2023-02-28T02:21:35;8.73;;;2.78;;
54823;SDS011;40724;53.196;5.980;2023-02-28T02:27:09;9.60;;;3.10;;
54823;SDS011;40724;53.196;5.980;2023-02-28T02:32:27;6.03;;;3.03;;
54823;SDS011;40724;53.196;5.980;2023-02-28T02:35:05;5.15;;;2.78;;
54823;SDS011;40724;53.196;5.980;2023-02-28T02:40:00;12.77;;;3.50;;
54823;SDS011;40724;53.196;5.980;2023-02-28T02:42:35;12.35;;;3.00;;
54823;SDS011;40724;53.196;5.980;2023-02-28T02:45:07;4.47;;;2.17;;
54823;SDS011;40724;53.196;5.980;2023-02-28T02:47:36;4.40;;;2.15;;
54823;SDS011;40724;53.196;5.980;2023-02-28T02:50:05;4.78;;;2.47;;
54823;SDS011;40724;53.196;5.980;2023-02-28T02:52:36;5.13;;;2.97;;
54823;SDS011;40724;53.196;5.980;2023-02-28T02:55:04;5.45;;;2.92;;
54823;SDS011;40724;53.196;5.980;2023-02-28T02:57:35;4.25;;;1.90;;
54823;SDS011;40724;53.196;5.980;2023-02-28T03:00:03;3.58;;;2.42;;
54823;SDS011;40724;53.196;5.980;2023-02-28T03:02:30;5.63;;;2.10;;
54823;SDS011;40724;53.196;5.980;2023-02-28T03:05:00;4.93;;;2.30;;
54823;SDS011;40724;53.196;5.980;2023-02-28T03:07:27;5.38;;;2.70;;
54823;SDS011;40724;53.196;5.980;2023-02-28T03:09:53;5.45;;;3.70;;
54823;SDS011;40724;53.196;5.980;2023-02-28T03:12:20;5.85;;;2.72;;
54823;SDS011;40724;53.196;5.980;2023-02-28T03:14:50;6.53;;;2.20;;
54823;SDS011;40724;53.196;5.980;2023-02-28T03:20:13;7.28;;;2.80;;
54823;SDS011;40724;53.196;5.980;2023-02-28T03:22:59;7.80;;;2.60;;
54823;SDS011;40724;53.196;5.980;2023-02-28T03:25:29;3.25;;;2.08;;
54823;SDS011;40724;53.196;5.980;2023-02-28T03:28:08;7.50;;;2.65;;
54823;SDS011;40724;53.196;5.980;2023-02-28T03:33:15;3.50;;;2.20;;
54823;SDS011;40724;53.196;5.980;2023-02-28T03:35:52;6.20;;;2.55;;
54823;SDS011;40724;53.196;5.980;2023-02-28T03:38:39;10.10;;;2.97;;
54823;SDS011;40724;53.196;5.980;2023-02-28T03:41:12;4.97;;;2.20;;
54823;SDS011;40724;53.196;5.980;2023-02-28T03:43:41;6.53;;;3.38;;
54823;SDS011;40724;53.196;5.980;2023-02-28T03:46:09;10.70;;;2.83;;
54823;SDS011;40724;53.196;5.980;2023-02-28T03:48:40;8.88;;;2.40;;
54823;SDS011;40724;53.196;5.980;2023-02-28T03:51:07;5.57;;;2.72;;
54823;SDS011;40724;53.196;5.980;2023-02-28T03:54:17;5.78;;;2.60;;
54823;SDS011;40724;53.196;5.980;2023-02-28T03:56:34;3.90;;;2.60;;
54823;SDS011;40724;53.196;5.980;2023-02-28T03:59:07;5.82;;;2.47;;
54823;SDS011;40724;53.196;5.980;2023-02-28T04:01:42;4.30;;;2.92;;
54823;SDS011;40724;53.196;5.980;2023-02-28T04:04:09;6.20;;;2.88;;
54823;SDS011;40724;53.196;5.980;2023-02-28T04:06:36;4.20;;;2.40;;
54823;SDS011;40724;53.196;5.980;2023-02-28T04:09:03;9.88;;;2.90;;
54823;SDS011;40724;53.196;5.980;2023-02-28T04:11:33;7.18;;;2.25;;
54823;SDS011;40724;53.196;5.980;2023-02-28T04:14:03;3.00;;;2.20;;
54823;SDS011;40724;53.196;5.980;2023-02-28T04:16:30;6.88;;;2.85;;
54823;SDS011;40724;53.196;5.980;2023-02-28T04:18:56;7.45;;;2.67;;
54823;SDS011;40724;53.196;5.980;2023-02-28T04:21:46;5.50;;;2.38;;
54823;SDS011;40724;53.196;5.980;2023-02-28T04:24:13;6.88;;;2.80;;
54823;SDS011;40724;53.196;5.980;2023-02-28T04:26:40;7.28;;;2.90;;
54823;SDS011;40724;53.196;5.980;2023-02-28T04:29:08;5.97;;;2.85;;
54823;SDS011;40724;53.196;5.980;2023-02-28T04:31:35;5.13;;;2.78;;
54823;SDS011;40724;53.196;5.980;2023-02-28T04:34:01;5.65;;;2.45;;
54823;SDS011;40724;53.196;5.980;2023-02-28T04:36:27;5.03;;;2.53;;
54823;SDS011;40724;53.196;5.980;2023-02-28T04:38:53;8.60;;;3.30;;
54823;SDS011;40724;53.196;5.980;2023-02-28T04:41:20;5.82;;;2.53;;
54823;SDS011;40724;53.196;5.980;2023-02-28T04:43:47;7.65;;;2.50;;
54823;SDS011;40724;53.196;5.980;2023-02-28T04:46:14;3.75;;;2.33;;
54823;SDS011;40724;53.196;5.980;2023-02-28T04:48:40;5.07;;;2.38;;
54823;SDS011;40724;53.196;5.980;2023-02-28T04:51:07;5.32;;;3.00;;
54823;SDS011;40724;53.196;5.980;2023-02-28T04:53:34;3.75;;;1.95;;
54823;SDS011;40724;53.196;5.980;2023-02-28T04:56:01;7.05;;;2.67;;
54823;SDS011;40724;53.196;5.980;2023-02-28T04:58:27;5.82;;;2.60;;
54823;SDS011;40724;53.196;5.980;2023-02-28T05:00:57;8.15;;;2.97;;
54823;SDS011;40724;53.196;5.980;2023-02-28T05:03:27;4.55;;;2.35;;
54823;SDS011;40724;53.196;5.980;2023-02-28T05:05:53;7.40;;;2.38;;
54823;SDS011;40724;53.196;5.980;2023-02-28T05:08:19;5.20;;;2.67;;
54823;SDS011;40724;53.196;5.980;2023-02-28T05:10:45;5.45;;;2.40;;
54823;SDS011;40724;53.196;5.980;2023-02-28T05:13:12;4.13;;;2.35;;
54823;SDS011;40724;53.196;5.980;2023-02-28T05:15:38;7.85;;;3.53;;
54823;SDS011;40724;53.196;5.980;2023-02-28T05:18:04;4.40;;;2.63;;
54823;SDS011;40724;53.196;5.980;2023-02-28T05:20:30;4.00;;;2.58;;
54823;SDS011;40724;53.196;5.980;2023-02-28T05:22:56;5.50;;;3.13;;
54823;SDS011;40724;53.196;5.980;2023-02-28T05:25:23;5.47;;;2.42;;
54823;SDS011;40724;53.196;5.980;2023-02-28T05:27:49;7.82;;;3.20;;
54823;SDS011;40724;53.196;5.980;2023-02-28T05:30:16;10.93;;;4.25;;
54823;SDS011;40724;53.196;5.980;2023-02-28T05:32:42;7.38;;;3.40;;
54823;SDS011;40724;53.196;5.980;2023-02-28T05:35:09;6.32;;;2.88;;
54823;SDS011;40724;53.196;5.980;2023-02-28T05:37:35;4.28;;;3.17;;
54823;SDS011;40724;53.196;5.980;2023-02-28T05:40:02;5.88;;;2.90;;
54823;SDS011;40724;53.196;5.980;2023-02-28T05:42:31;7.68;;;3.45;;
54823;SDS011;40724;53.196;5.980;2023-02-28T05:44:57;5.68;;;3.70;;
54823;SDS011;40724;53.196;5.980;2023-02-28T05:47:24;6.00;;;3.70;;
54823;SDS011;40724;53.196;5.980;2023-02-28T05:49:50;5.45;;;4.60;;
54823;SDS011;40724;53.196;5.980;2023-02-28T05:52:16;6.80;;;4.90;;
54823;SDS011;40724;53.196;5.980;2023-02-28T05:54:43;6.05;;;4.63;;
54823;SDS011;40724;53.196;5.980;2023-02-28T05:57:09;5.50;;;4.40;;
54823;SDS011;40724;53.196;5.980;2023-02-28T05:59:35;9.18;;;5.05;;
54823;SDS011;40724;53.196;5.980;2023-02-28T06:02:04;5.45;;;3.97;;
54823;SDS011;40724;53.196;5.980;2023-02-28T06:04:30;5.88;;;3.60;;
54823;SDS011;40724;53.196;5.980;2023-02-28T06:06:57;4.82;;;3.30;;
54823;SDS011;40724;53.196;5.980;2023-02-28T06:09:23;4.70;;;3.65;;
54823;SDS011;40724;53.196;5.980;2023-02-28T06:11:50;6.13;;;3.22;;
54823;SDS011;40724;53.196;5.980;2023-02-28T06:14:17;5.55;;;3.83;;
54823;SDS011;40724;53.196;5.980;2023-02-28T06:16:43;4.88;;;3.50;;
54823;SDS011;40724;53.196;5.980;2023-02-28T06:19:10;5.55;;;3.80;;
54823;SDS011;40724;53.196;5.980;2023-02-28T06:21:36;6.57;;;3.60;;
54823;SDS011;40724;53.196;5.980;2023-02-28T06:24:03;5.60;;;3.42;;
54823;SDS011;40724;53.196;5.980;2023-02-28T06:26:29;5.20;;;3.83;;
54823;SDS011;40724;53.196;5.980;2023-02-28T06:28:55;5.65;;;3.58;;
54823;SDS011;40724;53.196;5.980;2023-02-28T06:31:22;7.30;;;4.13;;
54823;SDS011;40724;53.196;5.980;2023-02-28T06:33:49;5.85;;;3.90;;
54823;SDS011;40724;53.196;5.980;2023-02-28T06:36:15;7.72;;;3.85;;
54823;SDS011;40724;53.196;5.980;2023-02-28T06:38:42;7.53;;;4.25;;
54823;SDS011;40724;53.196;5.980;2023-02-28T06:41:09;5.63;;;3.72;;
54823;SDS011;40724;53.196;5.980;2023-02-28T06:43:37;4.70;;;3.88;;
54823;SDS011;40724;53.196;5.980;2023-02-28T06:46:04;5.85;;;3.95;;
54823;SDS011;40724;53.196;5.980;2023-02-28T06:48:31;5.60;;;3.80;;
54823;SDS011;40724;53.196;5.980;2023-02-28T06:53:29;6.50;;;3.67;;
54823;SDS011;40724;53.196;5.980;2023-02-28T06:55:56;5.88;;;4.22;;
54823;SDS011;40724;53.196;5.980;2023-02-28T06:58:22;6.82;;;4.88;;
54823;SDS011;40724;53.196;5.980;2023-02-28T07:00:50;5.78;;;4.57;;
54823;SDS011;40724;53.196;5.980;2023-02-28T07:03:16;7.38;;;5.18;;
54823;SDS011;40724;53.196;5.980;2023-02-28T07:05:43;8.10;;;5.75;;
54823;SDS011;40724;53.196;5.980;2023-02-28T07:08:09;8.65;;;5.50;;
54823;SDS011;40724;53.196;5.980;2023-02-28T07:10:38;9.07;;;7.03;;
54823;SDS011;40724;53.196;5.980;2023-02-28T07:13:06;8.05;;;6.57;;
54823;SDS011;40724;53.196;5.980;2023-02-28T07:15:32;10.80;;;7.82;;
54823;SDS011;40724;53.196;5.980;2023-02-28T07:17:59;9.95;;;7.55;;
54823;SDS011;40724;53.196;5.980;2023-02-28T07:20:25;10.85;;;8.20;;
54823;SDS011;40724;53.196;5.980;2023-02-28T07:22:51;12.82;;;7.97;;
54823;SDS011;40724;53.196;5.980;2023-02-28T07:25:25;13.07;;;8.63;;
54823;SDS011;40724;53.196;5.980;2023-02-28T07:27:51;13.98;;;9.15;;
54823;SDS011;40724;53.196;5.980;2023-02-28T07:30:17;13.20;;;9.73;;
54823;SDS011;40724;53.196;5.980;2023-02-28T07:32:44;10.23;;;7.63;;
54823;SDS011;40724;53.196;5.980;2023-02-28T07:35:10;11.38;;;7.65;;
54823;SDS011;40724;53.196;5.980;2023-02-28T07:37:36;12.15;;;8.13;;
54823;SDS011;40724;53.196;5.980;2023-02-28T07:40:03;12.18;;;8.27;;
54823;SDS011;40724;53.196;5.980;2023-02-28T07:42:32;10.40;;;7.32;;
54823;SDS011;40724;53.196;5.980;2023-02-28T07:44:58;14.77;;;9.50;;
54823;SDS011;40724;53.196;5.980;2023-02-28T07:47:24;11.32;;;8.02;;
54823;SDS011;40724;53.196;5.980;2023-02-28T07:49:50;10.95;;;7.63;;
54823;SDS011;40724;53.196;5.980;2023-02-28T07:52:16;13.00;;;8.88;;
54823;SDS011;40724;53.196;5.980;2023-02-28T07:54:43;12.70;;;8.07;;
54823;SDS011;40724;53.196;5.980;2023-02-28T07:57:09;15.07;;;8.75;;
54823;SDS011;40724;53.196;5.980;2023-02-28T07:59:35;12.23;;;8.45;;
54823;SDS011;40724;53.196;5.980;2023-02-28T08:02:01;15.25;;;8.63;;
54823;SDS011;40724;53.196;5.980;2023-02-28T08:04:27;13.25;;;8.65;;
54823;SDS011;40724;53.196;5.980;2023-02-28T08:06:54;11.88;;;8.55;;
54823;SDS011;40724;53.196;5.980;2023-02-28T08:09:21;12.55;;;8.65;;
54823;SDS011;40724;53.196;5.980;2023-02-28T08:11:47;11.73;;;8.38;;
54823;SDS011;40724;53.196;5.980;2023-02-28T08:14:14;10.20;;;7.47;;
54823;SDS011;40724;53.196;5.980;2023-02-28T08:16:40;14.95;;;9.30;;
54823;SDS011;40724;53.196;5.980;2023-02-28T08:19:08;12.13;;;8.85;;
54823;SDS011;40724;53.196;5.980;2023-02-28T08:21:34;14.95;;;8.75;;
54823;SDS011;40724;53.196;5.980;2023-02-28T08:24:00;14.02;;;9.73;;
54823;SDS011;40724;53.196;5.980;2023-02-28T08:26:26;13.68;;;8.90;;
54823;SDS011;40724;53.196;5.980;2023-02-28T08:28:52;14.25;;;9.32;;
54823;SDS011;40724;53.196;5.980;2023-02-28T08:31:18;12.38;;;9.45;;
54823;SDS011;40724;53.196;5.980;2023-02-28T08:33:45;14.75;;;9.25;;
54823;SDS011;40724;53.196;5.980;2023-02-28T08:36:13;13.90;;;9.63;;
54823;SDS011;40724;53.196;5.980;2023-02-28T08:38:40;14.88;;;9.60;;
54823;SDS011;40724;53.196;5.980;2023-02-28T08:41:07;15.15;;;10.25;;
54823;SDS011;40724;53.196;5.980;2023-02-28T08:43:35;17.90;;;11.32;;
54823;SDS011;40724;53.196;5.980;2023-02-28T08:46:01;16.15;;;9.80;;
54823;SDS011;40724;53.196;5.980;2023-02-28T08:48:29;14.68;;;10.35;;
54823;SDS011;40724;53.196;5.980;2023-02-28T08:51:03;16.35;;;10.55;;
54823;SDS011;40724;53.196;5.980;2023-02-28T08:53:29;12.60;;;9.13;;
54823;SDS011;40724;53.196;5.980;2023-02-28T08:55:59;14.95;;;11.55;;
54823;SDS011;40724;53.196;5.980;2023-02-28T08:58:26;13.13;;;9.50;;
54823;SDS011;40724;53.196;5.980;2023-02-28T09:00:52;19.80;;;11.35;;
54823;SDS011;40724;53.196;5.980;2023-02-28T09:03:19;14.20;;;9.27;;
54823;SDS011;40724;53.196;5.980;2023-02-28T09:06:18;14.85;;;10.23;;
54823;SDS011;40724;53.196;5.980;2023-02-28T09:08:37;13.63;;;9.10;;
54823;SDS011;40724;53.196;5.980;2023-02-28T09:11:03;14.48;;;9.70;;
54823;SDS011;40724;53.196;5.980;2023-02-28T09:13:30;16.08;;;11.52;;
54823;SDS011;40724;53.196;5.980;2023-02-28T09:16:01;14.52;;;10.38;;
54823;SDS011;40724;53.196;5.980;2023-02-28T09:18:27;15.30;;;10.32;;
54823;SDS011;40724;53.196;5.980;2023-02-28T09:20:54;10.68;;;8.82;;
54823;SDS011;40724;53.196;5.980;2023-02-28T09:23:20;18.25;;;11.60;;
54823;SDS011;40724;53.196;5.980;2023-02-28T09:25:53;14.73;;;9.48;;
54823;SDS011;40724;53.196;5.980;2023-02-28T09:28:20;19.30;;;11.77;;
54823;SDS011;40724;53.196;5.980;2023-02-28T09:30:47;16.23;;;10.60;;
54823;SDS011;40724;53.196;5.980;2023-02-28T09:33:13;15.30;;;11.02;;
54823;SDS011;40724;53.196;5.980;2023-02-28T09:35:40;15.88;;;11.05;;
54823;SDS011;40724;53.196;5.980;2023-02-28T09:38:08;13.90;;;10.25;;
54823;SDS011;40724;53.196;5.980;2023-02-28T09:40:38;17.38;;;11.23;;
54823;SDS011;40724;53.196;5.980;2023-02-28T09:43:05;16.73;;;10.38;;
54823;SDS011;40724;53.196;5.980;2023-02-28T09:45:35;14.30;;;10.38;;
54823;SDS011;40724;53.196;5.980;2023-02-28T09:48:12;14.85;;;10.32;;
54823;SDS011;40724;53.196;5.980;2023-02-28T09:50:41;13.38;;;9.52;;
54823;SDS011;40724;53.196;5.980;2023-02-28T09:53:32;13.65;;;9.98;;
54823;SDS011;40724;53.196;5.980;2023-02-28T09:56:01;19.00;;;11.10;;
54823;SDS011;40724;53.196;5.980;2023-02-28T09:58:37;17.33;;;11.25;;
54823;SDS011;40724;53.196;5.980;2023-02-28T10:01:11;14.13;;;9.57;;
54823;SDS011;40724;53.196;5.980;2023-02-28T10:03:47;13.65;;;8.93;;
54823;SDS011;40724;53.196;5.980;2023-02-28T10:06:22;17.13;;;10.93;;
54823;SDS011;40724;53.196;5.980;2023-02-28T10:11:38;19.08;;;10.05;;
54823;SDS011;40724;53.196;5.980;2023-02-28T10:21:59;13.65;;;9.77;;
54823;SDS011;40724;53.196;5.980;2023-02-28T10:24:28;15.50;;;10.18;;
54823;SDS011;40724;53.196;5.980;2023-02-28T10:26:58;13.45;;;10.15;;
54823;SDS011;40724;53.196;5.980;2023-02-28T10:29:25;12.57;;;9.30;;
54823;SDS011;40724;53.196;5.980;2023-02-28T10:31:51;12.70;;;8.63;;
54823;SDS011;40724;53.196;5.980;2023-02-28T10:34:17;11.38;;;8.40;;
54823;SDS011;40724;53.196;5.980;2023-02-28T10:36:44;12.00;;;8.88;;
54823;SDS011;40724;53.196;5.980;2023-02-28T10:41:55;14.35;;;8.75;;
54823;SDS011;40724;53.196;5.980;2023-02-28T10:44:23;12.75;;;8.40;;
54823;SDS011;40724;53.196;5.980;2023-02-28T10:46:49;11.77;;;7.55;;
54823;SDS011;40724;53.196;5.980;2023-02-28T10:51:46;9.48;;;7.57;;
54823;SDS011;40724;53.196;5.980;2023-02-28T10:54:31;11.27;;;7.25;;
54823;SDS011;40724;53.196;5.980;2023-02-28T10:57:11;9.70;;;6.80;;
54823;SDS011;40724;53.196;5.980;2023-02-28T10:59:44;11.45;;;7.05;;
54823;SDS011;40724;53.196;5.980;2023-02-28T11:02:30;12.23;;;7.90;;
54823;SDS011;40724;53.196;5.980;2023-02-28T11:04:57;7.88;;;5.20;;
54823;SDS011;40724;53.196;5.980;2023-02-28T11:07:23;11.25;;;6.35;;
54823;SDS011;40724;53.196;5.980;2023-02-28T11:09:55;10.30;;;6.90;;
54823;SDS011;40724;53.196;5.980;2023-02-28T11:12:30;12.20;;;6.55;;
54823;SDS011;40724;53.196;5.980;2023-02-28T11:15:02;11.02;;;6.72;;
54823;SDS011;40724;53.196;5.980;2023-02-28T11:17:30;9.30;;;7.00;;
54823;SDS011;40724;53.196;5.980;2023-02-28T11:20:06;8.30;;;5.10;;
54823;SDS011;40724;53.196;5.980;2023-02-28T11:22:43;10.10;;;6.13;;
54823;SDS011;40724;53.196;5.980;2023-02-28T11:25:16;10.75;;;5.90;;
54823;SDS011;40724;53.196;5.980;2023-02-28T11:27:50;10.60;;;6.03;;
54823;SDS011;40724;53.196;5.980;2023-02-28T11:30:24;9.15;;;6.20;;
54823;SDS011;40724;53.196;5.980;2023-02-28T11:32:57;9.07;;;5.30;;
54823;SDS011;40724;53.196;5.980;2023-02-28T11:35:38;8.55;;;5.57;;
54823;SDS011;40724;53.196;5.980;2023-02-28T11:38:08;6.47;;;4.45;;
54823;SDS011;40724;53.196;5.980;2023-02-28T11:43:13;5.78;;;4.72;;
54823;SDS011;40724;53.196;5.980;2023-02-28T11:48:56;10.23;;;5.65;;
54823;SDS011;40724;53.196;5.980;2023-02-28T11:51:34;7.95;;;5.38;;
54823;SDS011;40724;53.196;5.980;2023-02-28T11:56:48;12.55;;;6.90;;
54823;SDS011;40724;53.196;5.980;2023-02-28T12:05:15;7.60;;;4.88;;
54823;SDS011;40724;53.196;5.980;2023-02-28T12:10:59;12.10;;;5.65;;
54823;SDS011;40724;53.196;5.980;2023-02-28T12:14:13;8.70;;;5.25;;
54823;SDS011;40724;53.196;5.980;2023-02-28T12:19:38;8.73;;;5.22;;
54823;SDS011;40724;53.196;5.980;2023-02-28T12:27:50;10.85;;;5.28;;
54823;SDS011;40724;53.196;5.980;2023-02-28T12:30:24;6.30;;;4.30;;
54823;SDS011;40724;53.196;5.980;2023-02-28T12:35:38;8.10;;;3.67;;
54823;SDS011;40724;53.196;5.980;2023-02-28T12:38:19;5.95;;;3.85;;
54823;SDS011;40724;53.196;5.980;2023-02-28T12:40:53;5.25;;;3.58;;
54823;SDS011;40724;53.196;5.980;2023-02-28T12:43:20;6.40;;;4.10;;
54823;SDS011;40724;53.196;5.980;2023-02-28T12:48:18;6.18;;;3.22;;
54823;SDS011;40724;53.196;5.980;2023-02-28T12:50:45;9.05;;;4.25;;
54823;SDS011;40724;53.196;5.980;2023-02-28T12:55:52;4.40;;;3.30;;
54823;SDS011;40724;53.196;5.980;2023-02-28T13:01:03;6.38;;;3.67;;
54823;SDS011;40724;53.196;5.980;2023-02-28T13:06:03;6.22;;;4.10;;
54823;SDS011;40724;53.196;5.980;2023-02-28T13:11:01;5.78;;;3.90;;
54823;SDS011;40724;53.196;5.980;2023-02-28T13:13:28;7.07;;;3.90;;
54823;SDS011;40724;53.196;5.980;2023-02-28T13:16:03;7.35;;;4.22;;
54823;SDS011;40724;53.196;5.980;2023-02-28T13:18:35;6.30;;;3.58;;
54823;SDS011;40724;53.196;5.980;2023-02-28T13:23:55;5.03;;;3.63;;
54823;SDS011;40724;53.196;5.980;2023-02-28T13:28:57;8.63;;;4.72;;
54823;SDS011;40724;53.196;5.980;2023-02-28T13:31:29;5.18;;;4.10;;
54823;SDS011;40724;53.196;5.980;2023-02-28T13:36:30;7.13;;;4.40;;
54823;SDS011;40724;53.196;5.980;2023-02-28T13:38:57;7.68;;;4.82;;
54823;SDS011;40724;53.196;5.980;2023-02-28T13:41:46;6.60;;;3.80;;
54823;SDS011;40724;53.196;5.980;2023-02-28T13:44:19;6.15;;;4.25;;
54823;SDS011;40724;53.196;5.980;2023-02-28T14:03:26;5.68;;;3.58;;
54823;SDS011;40724;53.196;5.980;2023-02-28T14:06:08;7.70;;;3.25;;
54823;SDS011;40724;53.196;5.980;2023-02-28T14:08:52;8.13;;;4.55;;
54823;SDS011;40724;53.196;5.980;2023-02-28T14:11:26;5.22;;;3.72;;
54823;SDS011;40724;53.196;5.980;2023-02-28T14:13:54;6.55;;;4.38;;
54823;SDS011;40724;53.196;5.980;2023-02-28T14:16:20;5.53;;;3.70;;
54823;SDS011;40724;53.196;5.980;2023-02-28T14:21:24;4.45;;;3.65;;
54823;SDS011;40724;53.196;5.980;2023-02-28T14:35:22;6.97;;;4.30;;
54823;SDS011;40724;53.196;5.980;2023-02-28T14:37:53;7.05;;;3.95;;
54823;SDS011;40724;53.196;5.980;2023-02-28T14:40:26;7.40;;;3.65;;
54823;SDS011;40724;53.196;5.980;2023-02-28T14:42:56;4.97;;;3.47;;
54823;SDS011;40724;53.196;5.980;2023-02-28T14:45:24;6.13;;;3.85;;
54823;SDS011;40724;53.196;5.980;2023-02-28T14:47:55;6.00;;;4.05;;
54823;SDS011;40724;53.196;5.980;2023-02-28T14:50:29;6.00;;;3.30;;
54823;SDS011;40724;53.196;5.980;2023-02-28T14:52:57;5.80;;;3.30;;
54823;SDS011;40724;53.196;5.980;2023-02-28T14:55:31;6.85;;;4.78;;
54823;SDS011;40724;53.196;5.980;2023-02-28T14:58:01;7.28;;;4.03;;
54823;SDS011;40724;53.196;5.980;2023-02-28T15:00:33;4.70;;;3.22;;
54823;SDS011;40724;53.196;5.980;2023-02-28T15:05:55;6.95;;;3.72;;
54823;SDS011;40724;53.196;5.980;2023-02-28T15:08:28;5.93;;;4.00;;
54823;SDS011;40724;53.196;5.980;2023-02-28T15:10:57;4.95;;;3.63;;
54823;SDS011;40724;53.196;5.980;2023-02-28T15:16:01;5.63;;;3.72;;
54823;SDS011;40724;53.196;5.980;2023-02-28T15:18:48;6.20;;;4.25;;
54823;SDS011;40724;53.196;5.980;2023-02-28T15:21:18;7.97;;;4.05;;
54823;SDS011;40724;53.196;5.980;2023-02-28T15:26:38;6.28;;;3.60;;
54823;SDS011;40724;53.196;5.980;2023-02-28T15:29:06;6.05;;;3.78;;
54823;SDS011;40724;53.196;5.980;2023-02-28T15:31:40;6.03;;;3.63;;
54823;SDS011;40724;53.196;5.980;2023-02-28T15:34:06;4.63;;;3.10;;
54823;SDS011;40724;53.196;5.980;2023-02-28T15:36:40;5.97;;;4.07;;
54823;SDS011;40724;53.196;5.980;2023-02-28T15:39:26;6.75;;;4.35;;
54823;SDS011;40724;53.196;5.980;2023-02-28T15:41:55;6.45;;;4.30;;
54823;SDS011;40724;53.196;5.980;2023-02-28T15:44:35;7.05;;;3.55;;
54823;SDS011;40724;53.196;5.980;2023-02-28T15:47:02;5.22;;;3.78;;
54823;SDS011;40724;53.196;5.980;2023-02-28T15:49:30;5.53;;;3.40;;
54823;SDS011;40724;53.196;5.980;2023-02-28T15:51:58;5.30;;;4.03;;
54823;SDS011;40724;53.196;5.980;2023-02-28T15:54:30;4.55;;;3.90;;
54823;SDS011;40724;53.196;5.980;2023-02-28T15:56:57;5.30;;;3.88;;
54823;SDS011;40724;53.196;5.980;2023-02-28T15:59:25;5.70;;;3.78;;
54823;SDS011;40724;53.196;5.980;2023-02-28T16:04:30;7.03;;;3.85;;
54823;SDS011;40724;53.196;5.980;2023-02-28T16:09:26;6.30;;;3.95;;
54823;SDS011;40724;53.196;5.980;2023-02-28T16:11:53;7.15;;;4.43;;
54823;SDS011;40724;53.196;5.980;2023-02-28T16:14:21;6.10;;;4.82;;
54823;SDS011;40724;53.196;5.980;2023-02-28T16:16:54;5.55;;;4.50;;
54823;SDS011;40724;53.196;5.980;2023-02-28T16:19:20;6.50;;;5.10;;
54823;SDS011;40724;53.196;5.980;2023-02-28T16:21:46;7.78;;;4.97;;
54823;SDS011;40724;53.196;5.980;2023-02-28T16:24:13;8.35;;;5.22;;
54823;SDS011;40724;53.196;5.980;2023-02-28T16:26:42;6.07;;;4.82;;
54823;SDS011;40724;53.196;5.980;2023-02-28T16:29:25;7.40;;;4.97;;
54823;SDS011;40724;53.196;5.980;2023-02-28T16:31:51;6.53;;;4.95;;
54823;SDS011;40724;53.196;5.980;2023-02-28T16:34:18;8.68;;;5.10;;
54823;SDS011;40724;53.196;5.980;2023-02-28T16:36:48;7.43;;;4.85;;
54823;SDS011;40724;53.196;5.980;2023-02-28T16:39:15;10.27;;;5.30;;
54823;SDS011;40724;53.196;5.980;2023-02-28T16:41:42;4.95;;;4.25;;
54823;SDS011;40724;53.196;5.980;2023-02-28T16:44:10;6.28;;;4.45;;
54823;SDS011;40724;53.196;5.980;2023-02-28T16:46:38;10.05;;;5.47;;
54823;SDS011;40724;53.196;5.980;2023-02-28T16:49:05;7.28;;;5.68;;
54823;SDS011;40724;53.196;5.980;2023-02-28T16:51:34;7.85;;;5.70;;
54823;SDS011;40724;53.196;5.980;2023-02-28T16:54:00;8.82;;;5.97;;
54823;SDS011;40724;53.196;5.980;2023-02-28T16:56:26;8.40;;;6.35;;
54823;SDS011;40724;53.196;5.980;2023-02-28T16:58:52;9.82;;;6.15;;
54823;SDS011;40724;53.196;5.980;2023-02-28T17:01:21;11.05;;;6.85;;
54823;SDS011;40724;53.196;5.980;2023-02-28T17:03:48;26.33;;;9.80;;
54823;SDS011;40724;53.196;5.980;2023-02-28T17:06:22;11.32;;;6.85;;
54823;SDS011;40724;53.196;5.980;2023-02-28T17:08:55;11.10;;;8.10;;
54823;SDS011;40724;53.196;5.980;2023-02-28T17:11:25;19.70;;;9.55;;